Time;durP1;ratioP1;P1;durP2;ratioP2;P2;SDS_P1;SDS_P2;PMS_P1;PMS_P2;Temp;Humidity;BMP_temperature;BMP_pressure;BME280_temperature;BME280_humidity;BME280_pressure;Samples;Min_cycle;Max_cycle;Signal;HPM_P1;HPM_P2
2023/02/06 00:01:59;;;;;;;;;;;;;;;;;;5042946;28;19928;-71
2023/02/06 00:04:25;;;;;;;;;;;;;;;;;;5052916;28;20373;-71
2023/02/06 00:06:51;;;;;;;;;;;;;;;;;;5050990;28;19925;-71
2023/02/06 00:09:17;;;;;;;;;;;;;;;;;;5048899;28;19924;-69
2023/02/06 00:11:42;;;;;;;;;;;;;;;;;;5052829;28;21824;-70
2023/02/06 00:14:08;;;;;;;;;;;;;;;;;;5067699;28;19975;-70
2023/02/06 00:16:34;;;;;;;;;;;;;;;;;;5053539;28;19925;-70
2023/02/06 00:19:00;;;;;;;;;;;;;;;;;;5050565;28;19921;-70
2023/02/06 00:21:26;;;;;;;;;;;;;;;;;;5048710;28;19928;-70
2023/02/06 00:23:52;;;;;;;;;;;;;;;;;;5065822;28;20329;-70
2023/02/06 00:26:18;;;;;;;;;;;;;;;;;;5052532;28;19979;-70
2023/02/06 00:28:44;;;;;;;;;;;;;;;;;;5047526;28;19964;-70
2023/02/06 00:31:09;;;;;;;;;;;;;;;;;;5051481;28;19935;-71
2023/02/06 00:33:35;;;;;;;;;;;;;;;;;;5065924;28;19929;-72
2023/02/06 00:36:01;;;;;;;;;;;;;;;;;;5064472;28;19979;-71
2023/02/06 00:38:27;;;;;;;;;;;;;;;;;;5066221;28;19928;-71
2023/02/06 00:40:53;;;;;;;;;;;;;;;;;;5041927;28;20078;-71
2023/02/06 00:43:19;;;;;;;;;;;;;;;;;;5046030;28;20001;-71
2023/02/06 00:45:45;;;;;;;;;;;;;;;;;;5061994;28;19925;-72
2023/02/06 00:48:15;;;;;;;;;;;;;;;;;;5058901;28;20371;-71
2023/02/06 00:50:41;;;;;;;;;;;;;;;;;;5049642;28;19920;-71
2023/02/06 00:53:07;;;;;;;;;;;;;;;;;;5066005;28;19987;-71
2023/02/06 00:55:33;;;;;;;;;;;;;;;;;;5045505;28;19963;-70
2023/02/06 00:57:58;;;;;;;;;;;;;;;;;;5049364;28;19920;-70
2023/02/06 01:00:24;;;;;;;;;;;;;;;;;;5042162;28;19970;-70
2023/02/06 01:02:50;;;;;;;;;;;;;;;;;;5046029;28;19924;-71
2023/02/06 01:05:16;;;;;;;;;;;;;;;;;;5049316;28;19925;-70
2023/02/06 01:07:42;;;;;;;;;;;;;;;;;;5047504;28;19924;-72
2023/02/06 01:10:08;;;;;;;;;;;;;;;;;;5066008;28;20301;-72
2023/02/06 01:12:34;;;;;;;;;;;;;;;;;;5046738;28;19928;-71
2023/02/06 01:15:01;;;;;;;;;;;;;;;;;;5053726;28;19973;-70
2023/02/06 01:17:26;;;;;;;;;;;;;;;;;;5051494;28;19920;-70
2023/02/06 01:19:52;;;;;;;;;;;;;;;;;;5063689;28;20436;-71
2023/02/06 01:22:18;;;;;;;;;;;;;;;;;;5064327;28;20354;-71
2023/02/06 01:24:44;;;;;;;;;;;;;;;;;;5051584;28;20012;-71
2023/02/06 01:27:10;;;;;;;;;;;;;;;;;;5048123;28;20405;-72
2023/02/06 01:29:36;;;;;;;;;;;;;;;;;;5045946;28;19932;-71
2023/02/06 01:32:02;;;;;;;;;;;;;;;;;;5051323;28;19921;-72
2023/02/06 01:34:28;;;;;;;;;;;;;;;;;;5065843;28;19924;-72
2023/02/06 01:36:54;;;;;;;;;;;;;;;;;;5048299;28;19921;-71
2023/02/06 01:39:19;;;;;;;;;;;;;;;;;;5047437;28;20029;-71
2023/02/06 01:41:45;;;;;;;;;;;;;;;;;;5046153;28;19932;-71
2023/02/06 01:44:11;;;;;;;;;;;;;;;;;;5060133;28;19921;-70
2023/02/06 01:46:37;;;;;;;;;;;;;;;;;;5045425;28;19925;-71
2023/02/06 01:49:03;;;;;;;;;;;;;;;;;;5044254;28;19994;-71
2023/02/06 01:51:29;;;;;;;;;;;;;;;;;;5057362;28;20347;-70
2023/02/06 01:53:56;;;;;;;;;;;;;;;;;;5045278;28;20028;-71
2023/02/06 01:56:22;;;;;;;;;;;;;;;;;;5046553;28;19925;-71
2023/02/06 01:58:48;;;;;;;;;;;;;;;;;;5052230;28;19921;-72
2023/02/06 02:01:14;;;;;;;;;;;;;;;;;;5048858;28;19925;-71
2023/02/06 02:03:40;;;;;;;;;;;;;;;;;;5048666;28;19935;-71
2023/02/06 02:06:06;;;;;;;;;;;;;;;;;;5047468;28;19924;-71
2023/02/06 02:08:31;;;;;;;;;;;;;;;;;;5049728;28;20434;-71
2023/02/06 02:10:57;;;;;;;;;;;;;;;;;;5046718;28;19925;-71
2023/02/06 02:13:23;;;;;;;;;;;;;;;;;;5047618;28;20571;-71
2023/02/06 02:15:49;;;;;;;;;;;;;;;;;;5049780;28;19928;-70
2023/02/06 02:18:15;;;;;;;;;;;;;;;;;;5062968;28;19925;-71
2023/02/06 02:20:41;;;;;;;;;;;;;;;;;;5050101;28;20043;-70
2023/02/06 02:23:07;;;;;;;;;;;;;;;;;;5047857;28;19925;-71
2023/02/06 02:25:33;;;;;;;;;;;;;;;;;;5048918;28;19978;-71
2023/02/06 02:27:59;;;;;;;;;;;;;;;;;;5046968;28;19968;-70
2023/02/06 02:30:24;;;;;;;;;;;;;;;;;;5049459;28;19920;-72
2023/02/06 02:32:50;;;;;;;;;;;;;;;;;;5053697;28;19925;-72
2023/02/06 02:35:16;;;;;;;;;;;;;;;;;;5046390;28;19925;-71
2023/02/06 02:37:42;;;;;;;;;;;;;;;;;;5048230;28;19925;-71
2023/02/06 02:40:08;;;;;;;;;;;;;;;;;;5064400;28;20020;-69
2023/02/06 02:42:34;;;;;;;;;;;;;;;;;;5048046;28;19924;-70
2023/02/06 02:45:00;;;;;;;;;;;;;;;;;;5041447;28;19928;-70
2023/02/06 02:47:26;;;;;;;;;;;;;;;;;;5043204;28;19967;-70
2023/02/06 02:49:52;;;;;;;;;;;;;;;;;;5041667;28;19948;-70
2023/02/06 02:52:17;;;;;;;;;;;;;;;;;;5039339;28;19931;-70
2023/02/06 02:54:43;;;;;;;;;;;;;;;;;;5042345;28;19924;-70
2023/02/06 02:57:09;;;;;;;;;;;;;;;;;;5061109;28;19932;-70
2023/02/06 02:59:35;;;;;;;;;;;;;;;;;;5044769;28;19983;-70
2023/02/06 03:02:01;;;;;;;;;;;;;;;;;;5047290;28;20319;-71
2023/02/06 03:04:27;;;;;;;;;;;;;;;;;;5048989;28;19931;-72
2023/02/06 03:06:53;;;;;;;;;;;;;;;;;;5062601;28;19928;-71
2023/02/06 03:09:19;;;;;;;;;;;;;;;;;;5043081;28;19921;-71
2023/02/06 03:11:44;;;;;;;;;;;;;;;;;;5047913;28;19925;-71
2023/02/06 03:14:10;;;;;;;;;;;;;;;;;;5036431;28;19983;-71
2023/02/06 03:16:36;;;;;;;;;;;;;;;;;;5050177;28;19928;-71
2023/02/06 03:19:02;;;;;;;;;;;;;;;;;;5067254;28;19921;-71
2023/02/06 03:21:28;;;;;;;;;;;;;;;;;;5050577;28;19974;-71
2023/02/06 03:23:54;;;;;;;;;;;;;;;;;;5061911;28;19958;-71
2023/02/06 03:26:20;;;;;;;;;;;;;;;;;;5037777;28;20003;-71
2023/02/06 03:28:46;;;;;;;;;;;;;;;;;;5049669;28;19925;-71
2023/02/06 03:31:12;;;;;;;;;;;;;;;;;;5045382;28;19925;-70
2023/02/06 03:33:38;;;;;;;;;;;;;;;;;;5047572;28;19929;-70
2023/02/06 03:36:04;;;;;;;;;;;;;;;;;;5049392;28;20370;-71
2023/02/06 03:38:30;;;;;;;;;;;;;;;;;;5069261;28;19921;-71
2023/02/06 03:40:55;;;;;;;;;;;;;;;;;;5051746;28;19921;-71
2023/02/06 03:43:21;;;;;;;;;;;;;;;;;;5062574;28;19925;-70
2023/02/06 03:45:48;;;;;;;;;;;;;;;;;;5043835;28;19929;-70
2023/02/06 03:48:13;;;;;;;;;;;;;;;;;;5045797;28;19956;-70
2023/02/06 03:50:39;;;;;;;;;;;;;;;;;;5051302;28;20395;-70
2023/02/06 03:53:05;;;;;;;;;;;;;;;;;;5051557;28;19929;-70
2023/02/06 03:55:31;;;;;;;;;;;;;;;;;;5047846;28;19925;-70
2023/02/06 03:57:57;;;;;;;;;;;;;;;;;;5047796;28;19925;-70
2023/02/06 04:00:24;;;;;;;;;;;;;;;;;;5048841;28;19935;-70
2023/02/06 04:02:50;;;;;;;;;;;;;;;;;;5053323;28;19932;-71
2023/02/06 04:05:16;;;;;;;;;;;;;;;;;;5066514;28;19994;-70
2023/02/06 04:07:41;;;;;;;;;;;;;;;;;;5065162;28;19929;-70
2023/02/06 04:10:07;;;;;;;;;;;;;;;;;;5051040;28;19928;-70
2023/02/06 04:12:33;;;;;;;;;;;;;;;;;;5064473;28;19952;-71
2023/02/06 04:14:59;;;;;;;;;;;;;;;;;;5048968;28;19927;-71
2023/02/06 04:17:25;;;;;;;;;;;;;;;;;;5051301;28;20012;-71
2023/02/06 04:19:51;;;;;;;;;;;;;;;;;;5048698;28;19928;-71
2023/02/06 04:22:17;;;;;;;;;;;;;;;;;;5050433;28;20019;-71
2023/02/06 04:24:43;;;;;;;;;;;;;;;;;;5048671;28;19996;-71
2023/02/06 04:27:09;;;;;;;;;;;;;;;;;;5031618;28;20384;-71
2023/02/06 04:29:34;;;;;;;;;;;;;;;;;;5052194;28;19925;-70
2023/02/06 04:32:01;;;;;;;;;;;;;;;;;;5044039;28;20316;-70
2023/02/06 04:34:27;;;;;;;;;;;;;;;;;;5063891;28;19932;-69
2023/02/06 04:36:53;;;;;;;;;;;;;;;;;;5050772;28;19924;-69
2023/02/06 04:39:19;;;;;;;;;;;;;;;;;;5050123;28;19970;-70
2023/02/06 04:41:44;;;;;;;;;;;;;;;;;;5062910;28;20410;-70
2023/02/06 04:44:10;;;;;;;;;;;;;;;;;;5061157;28;19925;-71
2023/02/06 04:46:36;;;;;;;;;;;;;;;;;;5043602;28;19935;-71
2023/02/06 04:49:02;;;;;;;;;;;;;;;;;;5055278;28;19932;-71
2023/02/06 04:51:28;;;;;;;;;;;;;;;;;;5061957;28;20385;-71
2023/02/06 04:53:54;;;;;;;;;;;;;;;;;;5050733;28;19972;-70
2023/02/06 04:56:20;;;;;;;;;;;;;;;;;;5065690;28;20256;-69
2023/02/06 04:58:46;;;;;;;;;;;;;;;;;;5043750;28;19948;-70
2023/02/06 05:01:12;;;;;;;;;;;;;;;;;;5048106;28;20254;-70
2023/02/06 05:03:38;;;;;;;;;;;;;;;;;;5064571;28;19924;-70
2023/02/06 05:06:04;;;;;;;;;;;;;;;;;;5046573;28;19921;-70
2023/02/06 05:08:29;;;;;;;;;;;;;;;;;;5058303;28;19925;-70
2023/02/06 05:10:55;;;;;;;;;;;;;;;;;;5050836;28;19920;-70
2023/02/06 05:13:21;;;;;;;;;;;;;;;;;;5038741;28;20390;-71
2023/02/06 05:15:47;;;;;;;;;;;;;;;;;;5046443;28;20367;-70
2023/02/06 05:18:13;;;;;;;;;;;;;;;;;;5049519;28;19925;-70
2023/02/06 05:20:39;;;;;;;;;;;;;;;;;;5043477;28;19967;-70
2023/02/06 05:23:05;;;;;;;;;;;;;;;;;;5051618;28;19925;-69
2023/02/06 05:25:31;;;;;;;;;;;;;;;;;;5066225;28;20406;-70
2023/02/06 05:27:57;;;;;;;;;;;;;;;;;;5032553;28;19929;-71
2023/02/06 05:30:23;;;;;;;;;;;;;;;;;;5049054;28;19928;-70
2023/02/06 05:32:49;;;;;;;;;;;;;;;;;;5044636;28;19951;-71
2023/02/06 05:35:15;;;;;;;;;;;;;;;;;;5048362;28;20035;-70
2023/02/06 05:37:41;;;;;;;;;;;;;;;;;;5049431;28;21126;-71
2023/02/06 05:40:07;;;;;;;;;;;;;;;;;;5047783;28;20024;-71
2023/02/06 05:42:33;;;;;;;;;;;;;;;;;;5050811;28;20004;-69
2023/02/06 05:44:58;;;;;;;;;;;;;;;;;;5049198;28;20370;-70
2023/02/06 05:47:24;;;;;;;;;;;;;;;;;;5047327;28;19931;-70
2023/02/06 05:49:50;;;;;;;;;;;;;;;;;;5058403;28;20255;-70
2023/02/06 05:52:16;;;;;;;;;;;;;;;;;;5043233;28;19974;-69
2023/02/06 05:54:42;;;;;;;;;;;;;;;;;;5047073;28;19976;-71
2023/02/06 05:57:08;;;;;;;;;;;;;;;;;;5045411;28;20286;-70
2023/02/06 05:59:34;;;;;;;;;;;;;;;;;;5049030;28;19924;-70
2023/02/06 06:02:00;;;;;;;;;;;;;;;;;;5037839;28;20111;-70
2023/02/06 06:04:26;;;;;;;;;;;;;;;;;;5047717;28;19925;-71
2023/02/06 06:06:52;;;;;;;;;;;;;;;;;;5049559;28;19925;-71
2023/02/06 06:09:17;;;;;;;;;;;;;;;;;;5048177;28;19928;-71
2023/02/06 06:11:43;;;;;;;;;;;;;;;;;;5066658;28;19928;-71
2023/02/06 06:14:09;;;;;;;;;;;;;;;;;;5063077;28;19929;-71
2023/02/06 06:16:35;;;;;;;;;;;;;;;;;;5050899;28;19925;-71
2023/02/06 06:19:01;;;;;;;;;;;;;;;;;;5047506;28;20274;-71
2023/02/06 06:21:27;;;;;;;;;;;;;;;;;;5047867;28;20381;-71
2023/02/06 06:23:53;;;;;;;;;;;;;;;;;;5055342;28;19968;-71
2023/02/06 06:26:19;;;;;;;;;;;;;;;;;;5052123;28;20417;-71
2023/02/06 06:28:45;;;;;;;;;;;;;;;;;;5044746;28;19920;-69
2023/02/06 06:31:10;;;;;;;;;;;;;;;;;;5048101;28;19947;-70
2023/02/06 06:33:36;;;;;;;;;;;;;;;;;;5044392;28;20370;-69
2023/02/06 06:36:02;;;;;;;;;;;;;;;;;;5065468;28;19925;-70
2023/02/06 06:38:28;;;;;;;;;;;;;;;;;;5030834;28;20024;-71
2023/02/06 06:40:54;;;;;;;;;;;;;;;;;;5053475;28;19928;-70
2023/02/06 06:43:20;;;;;;;;;;;;;;;;;;5049285;28;19928;-70
2023/02/06 06:45:46;;;;;;;;;;;;;;;;;;5044043;28;20451;-72
2023/02/06 06:48:12;;;;;;;;;;;;;;;;;;5070496;22;20457;-66
2023/02/06 06:50:37;;;;;;;;;;;;;;;;;;5029758;28;20007;-66
2023/02/06 06:53:03;;;;;;;;;;;;;;;;;;5031881;28;19929;-66
2023/02/06 06:55:29;;;;;;;;;;;;;;;;;;5027193;28;20259;-66
2023/02/06 06:57:55;;;;;;;;;;;;;;;;;;5028263;28;19971;-66
2023/02/06 07:00:21;;;;;;;;;;;;;;;;;;5025458;28;20111;-66
2023/02/06 07:02:47;;;;;;;;;;;;;;;;;;5029725;28;19921;-67
2023/02/06 07:05:13;;;;;;;;;;;;;;;;;;5029238;28;19925;-66
2023/02/06 07:07:39;;;;;;;;;;;;;;;;;;5031429;28;19975;-66
2023/02/06 07:10:05;;;;;;;;;;;;;;;;;;5032521;28;19921;-66
2023/02/06 07:12:31;;;;;;;;;;;;;;;;;;5034268;28;19983;-66
2023/02/06 07:14:57;;;;;;;;;;;;;;;;;;5035360;28;19936;-67
2023/02/06 07:17:23;;;;;;;;;;;;;;;;;;5035175;28;19979;-65
2023/02/06 07:19:51;;;;;;;;;;;;;;;;;;5031537;28;19974;-66
2023/02/06 07:22:17;;;;;;;;;;;;;;;;;;5031649;28;19928;-66
2023/02/06 07:24:43;;;;;;;;;;;;;;;;;;5029655;28;19924;-66
2023/02/06 07:27:08;;;;;;;;;;;;;;;;;;5033850;28;19932;-66
2023/02/06 07:29:34;;;;;;;;;;;;;;;;;;5034207;28;19983;-66
2023/02/06 07:32:00;;;;;;;;;;;;;;;;;;5029696;28;19952;-66
2023/02/06 07:34:26;;;;;;;;;;;;;;;;;;5032164;28;19925;-66
2023/02/06 07:36:52;;;;;;;;;;;;;;;;;;5046965;28;19940;-67
2023/02/06 07:39:18;;;;;;;;;;;;;;;;;;5035110;28;19925;-66
2023/02/06 07:41:45;;;;;;;;;;;;;;;;;;5030106;28;20096;-66
2023/02/06 07:44:11;;;;;;;;;;;;;;;;;;5032186;28;19924;-66
2023/02/06 07:46:37;;;;;;;;;;;;;;;;;;5031278;28;20426;-66
2023/02/06 07:49:03;;;;;;;;;;;;;;;;;;5036486;28;19927;-66
2023/02/06 07:51:29;;;;;;;;;;;;;;;;;;5034168;28;19972;-66
2023/02/06 07:53:55;;;;;;;;;;;;;;;;;;5034458;28;19925;-66
2023/02/06 07:56:24;;;;;;;;;;;;;;;;;;5030315;28;20043;-66
2023/02/06 07:58:50;;;;;;;;;;;;;;;;;;5033794;28;20402;-67
2023/02/06 08:01:16;;;;;;;;;;;;;;;;;;5030329;28;19929;-67
2023/02/06 08:03:42;;;;;;;;;;;;;;;;;;5050058;28;19921;-67
2023/02/06 08:06:08;;;;;;;;;;;;;;;;;;5034084;28;19952;-67
2023/02/06 08:08:34;;;;;;;;;;;;;;;;;;5032836;28;19925;-67
2023/02/06 08:10:59;;;;;;;;;;;;;;;;;;5032846;28;19979;-67
2023/02/06 08:13:25;;;;;;;;;;;;;;;;;;5042103;28;19921;-67
2023/02/06 08:15:51;;;;;;;;;;;;;;;;;;5032303;28;19964;-67
2023/02/06 08:18:17;;;;;;;;;;;;;;;;;;5027797;28;20394;-67
2023/02/06 08:20:43;;;;;;;;;;;;;;;;;;5043477;28;19925;-67
2023/02/06 08:23:09;;;;;;;;;;;;;;;;;;5028925;28;19967;-66
2023/02/06 08:25:35;;;;;;;;;;;;;;;;;;5033373;28;19932;-66
2023/02/06 08:28:01;;;;;;;;;;;;;;;;;;5027217;28;19921;-66
2023/02/06 08:30:27;;;;;;;;;;;;;;;;;;5031367;28;19925;-66
2023/02/06 08:32:52;;;;;;;;;;;;;;;;;;5031101;28;19987;-66
2023/02/06 08:35:18;;;;;;;;;;;;;;;;;;5034612;28;19933;-66
2023/02/06 08:37:44;;;;;;;;;;;;;;;;;;5034018;28;19967;-66
2023/02/06 08:40:10;;;;;;;;;;;;;;;;;;5021192;28;20366;-66
2023/02/06 08:42:36;;;;;;;;;;;;;;;;;;5032516;28;19933;-67
2023/02/06 08:45:02;;;;;;;;;;;;;;;;;;5030710;28;19929;-67
2023/02/06 08:47:28;;;;;;;;;;;;;;;;;;5031499;28;20278;-67
2023/02/06 08:49:54;;;;;;;;;;;;;;;;;;5027682;28;19941;-66
2023/02/06 08:52:21;;;;;;;;;;;;;;;;;;5030664;28;19932;-67
2023/02/06 08:54:47;;;;;;;;;;;;;;;;;;5031362;28;20044;-66
2023/02/06 08:57:13;;;;;;;;;;;;;;;;;;5028518;28;20365;-66
2023/02/06 08:59:40;;;;;;;;;;;;;;;;;;5028421;28;19925;-66
2023/02/06 09:02:06;;;;;;;;;;;;;;;;;;5033310;28;20004;-65
2023/02/06 09:04:34;;;;;;;;;;;;;;;;;;5025792;28;19928;-66
2023/02/06 09:07:00;;;;;;;;;;;;;;;;;;5036083;28;20007;-66
2023/02/06 09:09:25;;;;;;;;;;;;;;;;;;5032621;28;20005;-66
2023/02/06 09:11:52;;;;;;;;;;;;;;;;;;5033387;28;19925;-66
2023/02/06 09:14:19;;;;;;;;;;;;;;;;;;5028462;28;19980;-66
2023/02/06 09:16:45;;;;;;;;;;;;;;;;;;5030407;28;20012;-66
2023/02/06 09:19:10;;;;;;;;;;;;;;;;;;5027200;28;20532;-66
2023/02/06 09:21:36;;;;;;;;;;;;;;;;;;5030190;28;19982;-66
2023/02/06 09:24:02;;;;;;;;;;;;;;;;;;5030680;28;19975;-66
2023/02/06 09:26:28;;;;;;;;;;;;;;;;;;5025318;28;19942;-66
2023/02/06 09:28:56;;;;;;;;;;;;;;;;;;5027136;28;19933;-66
2023/02/06 09:31:21;;;;;;;;;;;;;;;;;;5024880;28;19975;-66
2023/02/06 09:33:47;;;;;;;;;;;;;;;;;;5029874;28;20258;-66
2023/02/06 09:36:13;;;;;;;;;;;;;;;;;;5032498;28;19936;-66
2023/02/06 09:38:39;;;;;;;;;;;;;;;;;;5033112;28;20363;-66
2023/02/06 09:41:05;;;;;;;;;;;;;;;;;;5026260;28;20019;-66
2023/02/06 09:43:31;;;;;;;;;;;;;;;;;;5031441;28;19921;-66
2023/02/06 09:45:57;;;;;;;;;;;;;;;;;;5029950;28;19925;-66
2023/02/06 09:48:23;;;;;;;;;;;;;;;;;;5022766;28;19957;-67
2023/02/06 09:50:49;;;;;;;;;;;;;;;;;;5027701;28;19925;-66
2023/02/06 09:53:15;;;;;;;;;;;;;;;;;;5028542;28;19923;-66
2023/02/06 09:55:41;;;;;;;;;;;;;;;;;;5033094;28;19928;-66
2023/02/06 09:58:07;;;;;;;;;;;;;;;;;;5022937;28;19929;-67
2023/02/06 10:00:33;;;;;;;;;;;;;;;;;;5025999;28;20417;-67
2023/02/06 10:02:59;;;;;;;;;;;;;;;;;;5029049;28;19925;-67
2023/02/06 10:05:25;;;;;;;;;;;;;;;;;;5026575;28;19988;-66
2023/02/06 10:07:51;;;;;;;;;;;;;;;;;;5024469;28;19928;-66
2023/02/06 10:10:17;;;;;;;;;;;;;;;;;;5023967;28;19925;-66
2023/02/06 10:12:43;;;;;;;;;;;;;;;;;;5027681;28;19971;-66
2023/02/06 10:15:09;;;;;;;;;;;;;;;;;;5028112;28;19925;-66
2023/02/06 10:17:35;;;;;;;;;;;;;;;;;;5032339;28;19998;-66
2023/02/06 10:20:01;;;;;;;;;;;;;;;;;;5027836;28;19971;-66
2023/02/06 10:22:27;;;;;;;;;;;;;;;;;;5029224;28;20019;-66
2023/02/06 10:24:53;;;;;;;;;;;;;;;;;;5022296;28;19936;-66
2023/02/06 10:27:19;;;;;;;;;;;;;;;;;;5025970;28;20003;-66
2023/02/06 10:29:45;;;;;;;;;;;;;;;;;;5031936;28;19935;-66
2023/02/06 10:32:10;;;;;;;;;;;;;;;;;;5030250;28;19921;-66
2023/02/06 10:34:36;;;;;;;;;;;;;;;;;;5026454;28;19975;-66
2023/02/06 10:37:02;;;;;;;;;;;;;;;;;;5023925;28;19979;-66
2023/02/06 10:39:28;;;;;;;;;;;;;;;;;;5027675;28;19925;-66
2023/02/06 10:41:54;;;;;;;;;;;;;;;;;;5025656;28;20377;-66
2023/02/06 10:44:20;;;;;;;;;;;;;;;;;;5027039;28;19921;-66
2023/02/06 10:46:47;;;;;;;;;;;;;;;;;;5027853;28;19929;-66
2023/02/06 10:49:12;;;;;;;;;;;;;;;;;;5024233;28;20008;-66
2023/02/06 10:51:41;;;;;;;;;;;;;;;;;;5022912;28;20016;-66
2023/02/06 10:54:08;;;;;;;;;;;;;;;;;;5023651;28;21501;-66
2023/02/06 10:56:34;;;;;;;;;;;;;;;;;;5022197;28;19921;-66
2023/02/06 10:59:00;;;;;;;;;;;;;;;;;;5026135;28;19928;-66
2023/02/06 11:01:26;;;;;;;;;;;;;;;;;;5026261;28;19929;-66
2023/02/06 11:03:52;;;;;;;;;;;;;;;;;;5028051;28;20596;-66
2023/02/06 11:06:19;;;;;;;;;;;;;;;;;;5026860;28;19966;-66
2023/02/06 11:08:45;;;;;;;;;;;;;;;;;;5030293;28;20008;-66
2023/02/06 11:11:11;;;;;;;;;;;;;;;;;;5030395;28;19928;-66
2023/02/06 11:13:37;;;;;;;;;;;;;;;;;;5023749;28;19925;-66
2023/02/06 11:16:02;;;;;;;;;;;;;;;;;;5027048;28;19957;-66
2023/02/06 11:18:28;;;;;;;;;;;;;;;;;;5029649;28;19921;-66
2023/02/06 11:20:54;;;;;;;;;;;;;;;;;;5029123;28;19925;-66
2023/02/06 11:23:20;;;;;;;;;;;;;;;;;;5024806;28;20002;-66
2023/02/06 11:25:46;;;;;;;;;;;;;;;;;;5024086;28;19921;-66
2023/02/06 11:28:12;;;;;;;;;;;;;;;;;;5022570;28;20208;-66
2023/02/06 11:30:38;;;;;;;;;;;;;;;;;;5022459;28;19975;-66
2023/02/06 11:33:04;;;;;;;;;;;;;;;;;;5023730;28;19932;-66
2023/02/06 11:35:29;;;;;;;;;;;;;;;;;;5022484;28;20390;-66
2023/02/06 11:37:55;;;;;;;;;;;;;;;;;;5023285;28;19975;-66
2023/02/06 11:40:21;;;;;;;;;;;;;;;;;;5025947;28;20016;-66
2023/02/06 11:42:47;;;;;;;;;;;;;;;;;;5026853;28;19929;-66
2023/02/06 11:45:13;;;;;;;;;;;;;;;;;;5027744;28;19927;-66
2023/02/06 11:47:39;;;;;;;;;;;;;;;;;;5026400;28;19933;-66
2023/02/06 11:50:05;;;;;;;;;;;;;;;;;;5025363;28;20330;-66
2023/02/06 11:52:31;;;;;;;;;;;;;;;;;;5021451;28;20003;-66
2023/02/06 11:55:01;;;;;;;;;;;;;;;;;;5021625;28;19925;-66
2023/02/06 11:57:26;;;;;;;;;;;;;;;;;;5022410;28;19979;-66
2023/02/06 11:59:52;;;;;;;;;;;;;;;;;;5025390;28;19968;-66
2023/02/06 12:02:21;;;;;;;;;;;;;;;;;;5028144;28;19929;-66
2023/02/06 12:04:47;;;;;;;;;;;;;;;;;;5031742;28;20302;-67
2023/02/06 12:07:13;;;;;;;;;;;;;;;;;;5031066;28;19929;-66
2023/02/06 12:09:39;;;;;;;;;;;;;;;;;;5036162;28;19929;-66
2023/02/06 12:12:05;;;;;;;;;;;;;;;;;;5037512;28;19921;-66
2023/02/06 12:14:30;;;;;;;;;;;;;;;;;;5034403;28;20260;-66
2023/02/06 12:16:56;;;;;;;;;;;;;;;;;;5033698;28;19925;-66
2023/02/06 12:19:25;;;;;;;;;;;;;;;;;;5013051;28;19925;-66
2023/02/06 12:21:52;;;;;;;;;;;;;;;;;;5029309;28;19971;-66
2023/02/06 12:24:18;;;;;;;;;;;;;;;;;;5032894;28;19936;-66
2023/02/06 12:26:44;;;;;;;;;;;;;;;;;;5031316;28;19925;-66
2023/02/06 12:29:10;;;;;;;;;;;;;;;;;;5026667;28;19939;-66
2023/02/06 12:31:35;;;;;;;;;;;;;;;;;;5031895;28;19921;-66
2023/02/06 12:34:04;;;;;;;;;;;;;;;;;;5032656;28;19979;-66
2023/02/06 12:36:30;;;;;;;;;;;;;;;;;;5033842;28;19925;-66
2023/02/06 12:38:56;;;;;;;;;;;;;;;;;;5033947;28;20039;-66
2023/02/06 12:41:22;;;;;;;;;;;;;;;;;;5032642;28;20410;-67
2023/02/06 12:43:48;;;;;;;;;;;;;;;;;;5031715;28;19921;-66
2023/02/06 12:46:13;;;;;;;;;;;;;;;;;;5036111;28;19932;-66
2023/02/06 12:48:39;;;;;;;;;;;;;;;;;;5028373;28;20477;-66
2023/02/06 12:51:05;;;;;;;;;;;;;;;;;;5035629;28;19928;-67
2023/02/06 12:53:31;;;;;;;;;;;;;;;;;;5023930;28;20382;-65
2023/02/06 12:55:57;;;;;;;;;;;;;;;;;;5026502;28;19964;-66
2023/02/06 12:58:23;;;;;;;;;;;;;;;;;;5023908;28;20015;-66
2023/02/06 13:00:49;;;;;;;;;;;;;;;;;;5019072;28;19922;-66
2023/02/06 13:03:15;;;;;;;;;;;;;;;;;;5022475;28;20320;-66
2023/02/06 13:05:41;;;;;;;;;;;;;;;;;;5028706;28;19925;-66
2023/02/06 13:08:07;;;;;;;;;;;;;;;;;;5024550;28;19921;-66
2023/02/06 13:10:33;;;;;;;;;;;;;;;;;;5027300;28;19928;-66
2023/02/06 13:12:59;;;;;;;;;;;;;;;;;;5031535;28;19929;-66
2023/02/06 13:15:25;;;;;;;;;;;;;;;;;;5028527;28;19928;-66
2023/02/06 13:17:57;;;;;;;;;;;;;;;;;;5025521;28;20007;-66
2023/02/06 13:20:23;;;;;;;;;;;;;;;;;;5025848;28;22258;-66
2023/02/06 13:22:49;;;;;;;;;;;;;;;;;;5030973;28;19925;-66
2023/02/06 13:25:15;;;;;;;;;;;;;;;;;;5031115;28;20382;-66
2023/02/06 13:27:41;;;;;;;;;;;;;;;;;;5031117;28;19920;-66
2023/02/06 13:30:07;;;;;;;;;;;;;;;;;;5022754;28;19925;-66
2023/02/06 13:32:33;;;;;;;;;;;;;;;;;;5032092;28;20283;-66
2023/02/06 13:34:59;;;;;;;;;;;;;;;;;;5032428;28;19971;-66
2023/02/06 13:37:25;;;;;;;;;;;;;;;;;;5020002;28;19929;-65
2023/02/06 13:39:51;;;;;;;;;;;;;;;;;;5024067;28;20455;-65
2023/02/06 13:42:17;;;;;;;;;;;;;;;;;;5031361;28;19957;-65
2023/02/06 13:44:42;;;;;;;;;;;;;;;;;;5033155;28;20004;-67
2023/02/06 13:47:08;;;;;;;;;;;;;;;;;;5030333;28;20360;-67
2023/02/06 13:49:34;;;;;;;;;;;;;;;;;;5028677;28;19925;-67
2023/02/06 13:52:00;;;;;;;;;;;;;;;;;;5032674;28;19929;-67
2023/02/06 13:54:26;;;;;;;;;;;;;;;;;;5027172;28;19925;-66
2023/02/06 13:56:52;;;;;;;;;;;;;;;;;;5034022;28;20047;-66
2023/02/06 13:59:18;;;;;;;;;;;;;;;;;;5027817;28;19925;-66
2023/02/06 14:01:44;;;;;;;;;;;;;;;;;;5027189;28;19960;-66
2023/02/06 14:04:10;;;;;;;;;;;;;;;;;;5025379;28;19922;-66
2023/02/06 14:06:36;;;;;;;;;;;;;;;;;;5026074;28;19948;-66
2023/02/06 14:09:02;;;;;;;;;;;;;;;;;;5029811;28;19922;-66
2023/02/06 14:11:28;;;;;;;;;;;;;;;;;;5029965;28;19948;-66
2023/02/06 14:13:53;;;;;;;;;;;;;;;;;;5031469;28;19932;-66
2023/02/06 14:16:19;;;;;;;;;;;;;;;;;;5029641;28;19979;-66
2023/02/06 14:18:45;;;;;;;;;;;;;;;;;;5031498;28;20524;-66
2023/02/06 14:21:11;;;;;;;;;;;;;;;;;;5030954;28;19925;-66
2023/02/06 14:23:37;;;;;;;;;;;;;;;;;;5031973;28;19921;-66
2023/02/06 14:26:03;;;;;;;;;;;;;;;;;;5025675;28;19926;-66
2023/02/06 14:28:29;;;;;;;;;;;;;;;;;;5029390;28;20632;-66
2023/02/06 14:30:55;;;;;;;;;;;;;;;;;;5028887;28;19925;-66
2023/02/06 14:33:21;;;;;;;;;;;;;;;;;;5029528;28;19952;-66
2023/02/06 14:35:47;;;;;;;;;;;;;;;;;;5031386;28;19921;-67
2023/02/06 14:38:12;;;;;;;;;;;;;;;;;;5028891;28;19931;-67
2023/02/06 14:40:40;;;;;;;;;;;;;;;;;;5028562;28;19943;-67
2023/02/06 14:43:06;;;;;;;;;;;;;;;;;;5045142;28;19925;-67
2023/02/06 14:45:32;;;;;;;;;;;;;;;;;;5029187;28;19924;-67
2023/02/06 14:47:58;;;;;;;;;;;;;;;;;;5028411;28;19940;-67
2023/02/06 14:50:24;;;;;;;;;;;;;;;;;;5028194;28;19921;-66
2023/02/06 14:52:50;;;;;;;;;;;;;;;;;;5030722;28;19955;-67
2023/02/06 14:55:15;;;;;;;;;;;;;;;;;;5020676;28;19925;-67
2023/02/06 14:57:41;;;;;;;;;;;;;;;;;;5025874;28;19925;-67
2023/02/06 15:00:07;;;;;;;;;;;;;;;;;;5031562;28;19998;-67
2023/02/06 15:02:33;;;;;;;;;;;;;;;;;;5025939;28;19998;-66
2023/02/06 15:05:00;;;;;;;;;;;;;;;;;;5028950;28;19939;-67
2023/02/06 15:07:26;;;;;;;;;;;;;;;;;;5030113;28;19925;-67
2023/02/06 15:09:52;;;;;;;;;;;;;;;;;;5028215;28;19979;-66
2023/02/06 15:12:18;;;;;;;;;;;;;;;;;;5028747;28;19921;-67
2023/02/06 15:14:44;;;;;;;;;;;;;;;;;;5027720;28;19933;-66
2023/02/06 15:17:10;;;;;;;;;;;;;;;;;;5029274;28;19922;-67
2023/02/06 15:19:36;;;;;;;;;;;;;;;;;;5025574;28;19972;-66
2023/02/06 15:22:02;;;;;;;;;;;;;;;;;;5039511;28;20306;-66
2023/02/06 15:24:27;;;;;;;;;;;;;;;;;;5027672;28;19928;-67
2023/02/06 15:26:53;;;;;;;;;;;;;;;;;;5022562;28;19956;-67
2023/02/06 15:29:21;;;;;;;;;;;;;;;;;;5028803;28;20282;-67
2023/02/06 15:31:47;;;;;;;;;;;;;;;;;;5034902;28;19925;-68
2023/02/06 15:34:13;;;;;;;;;;;;;;;;;;5034063;28;20454;-67
2023/02/06 15:36:39;;;;;;;;;;;;;;;;;;5035231;28;19921;-67
2023/02/06 15:39:05;;;;;;;;;;;;;;;;;;5051917;28;19925;-67
2023/02/06 15:41:31;;;;;;;;;;;;;;;;;;5049580;28;19932;-67
2023/02/06 15:43:57;;;;;;;;;;;;;;;;;;5033213;28;19929;-67
2023/02/06 15:46:23;;;;;;;;;;;;;;;;;;5033512;28;19929;-67
2023/02/06 15:48:49;;;;;;;;;;;;;;;;;;5033769;28;19951;-67
2023/02/06 15:51:15;;;;;;;;;;;;;;;;;;5036354;28;20460;-67
2023/02/06 15:53:44;;;;;;;;;;;;;;;;;;5032900;28;19929;-67
2023/02/06 15:56:09;;;;;;;;;;;;;;;;;;5030951;28;19968;-66
2023/02/06 15:58:36;;;;;;;;;;;;;;;;;;5033726;28;19964;-66
2023/02/06 16:01:04;;;;;;;;;;;;;;;;;;5032657;28;20480;-67
2023/02/06 16:03:30;;;;;;;;;;;;;;;;;;5032257;28;19924;-66
2023/02/06 16:05:56;;;;;;;;;;;;;;;;;;5034227;28;19967;-67
2023/02/06 16:08:22;;;;;;;;;;;;;;;;;;5035028;28;19921;-67
2023/02/06 16:10:48;;;;;;;;;;;;;;;;;;5033698;28;19925;-67
2023/02/06 16:13:14;;;;;;;;;;;;;;;;;;5032271;28;20437;-67
2023/02/06 16:15:40;;;;;;;;;;;;;;;;;;5025345;28;19936;-66
2023/02/06 16:18:06;;;;;;;;;;;;;;;;;;5029884;28;20012;-67
2023/02/06 16:20:32;;;;;;;;;;;;;;;;;;5027546;28;20012;-66
2023/02/06 16:22:58;;;;;;;;;;;;;;;;;;5031030;28;19921;-67
2023/02/06 16:25:27;;;;;;;;;;;;;;;;;;5025525;28;19932;-67
2023/02/06 16:27:53;;;;;;;;;;;;;;;;;;5030528;28;20482;-67
2023/02/06 16:30:18;;;;;;;;;;;;;;;;;;5033839;28;19932;-67
2023/02/06 16:32:44;;;;;;;;;;;;;;;;;;5030192;28;20359;-67
2023/02/06 16:35:10;;;;;;;;;;;;;;;;;;5033703;28;20004;-67
2023/02/06 16:37:36;;;;;;;;;;;;;;;;;;5030717;28;19921;-68